• Join FlightAware (Why Join?)
  • Login
  • US Flag 
 
09:48AM EST


 

Airport Tracker/Info


-or-


 

Live Flight TrackerFlight Track Log ✈ ANE8013 ✈ 24-Mar-2012 ✈ LEPA / PMI - LEMD / MAD

Flight Track Log - Related Links

Times and Time Zones

All times are in EDT time to prevent confusion due to time zone crossing. See the ANE8013 flight status page for this flight to view local times or setup timezone preferences in your user account.

Time Position Orientation Groundspeed Altitude Reporting Facility
EDT Latitude Longitude Course Direction KTS MPH feet Rate Location/Type
06:31AM 39.5600 2.6921 283° West  Level Estimated
06:32AM 39.5817 2.5703 283° West  Level Estimated
06:33AM 39.6032 2.4484 283° West  Level Estimated
06:34AM 39.6246 2.3264 283° West  Level Estimated
06:35AM 39.6459 2.2043 283° West  Level Estimated
06:36AM 39.6670 2.0822 283° West  Level Estimated
06:37AM 39.6880 1.9599 283° West  Level Estimated
06:38AM 39.7089 1.8376 282° West  Level Estimated
06:39AM 39.7297 1.7153 282° West  Level Estimated
06:40AM 39.7503 1.5928 282° West  Level Estimated
06:41AM 39.7709 1.4703 282° West  Level Estimated
06:42AM 39.7912 1.3478 282° West  Level Estimated
06:43AM 39.8115 1.2251 282° West  Level Estimated
06:44AM 39.8316 1.1024 282° West  Level Estimated
06:45AM 39.8516 0.9796 282° West  Level Estimated
06:46AM 39.8714 0.8567 282° West  Level Estimated
06:47AM 39.8912 0.7338 282° West  Level Estimated
06:48AM 39.9108 0.6108 282° West  Level Estimated
06:49AM 39.9302 0.4877 282° West  Level Estimated
06:50AM 39.9496 0.3645 282° West  Level Estimated
06:51AM 39.9688 0.2413 281° West  Level Estimated
06:52AM 39.9879 0.1180 281° West  Level Estimated
06:53AM 40.0068 -0.0054 281° West  Level Estimated
06:54AM 40.0257 -0.1288 281° West  Level Estimated
06:55AM 40.0443 -0.2523 281° West  Level Estimated
06:56AM 40.0629 -0.3758 281° West  Level Estimated
06:57AM 40.0813 -0.4995 281° West  Level Estimated
06:58AM 40.0996 -0.6232 281° West  Level Estimated
06:59AM 40.1178 -0.7469 281° West  Level Estimated
07:00AM 40.1358 -0.8708 281° West  Level Estimated
07:01AM 40.1537 -0.9947 281° West  Level Estimated
07:02AM 40.1715 -1.1186 281° West  Level Estimated
07:03AM 40.1891 -1.2427 281° West  Level Estimated
07:04AM 40.2066 -1.3667 280° West  Level Estimated
07:05AM 40.2240 -1.4909 280° West  Level Estimated
07:06AM 40.2412 -1.6151 280° West  Level Estimated
07:07AM 40.2583 -1.7394 280° West  Level Estimated
07:08AM 40.2753 -1.8637 280° West  Level Estimated
07:09AM 40.2921 -1.9881 280° West  Level Estimated
07:10AM 40.3088 -2.1126 280° West  Level Estimated
07:11AM 40.3254 -2.2371 280° West  Level Estimated
07:12AM 40.3419 -2.3617 280° West  Level Estimated
07:13AM 40.3582 -2.4864 280° West  Level Estimated
07:14AM 40.3743 -2.6111 280° West  Level Estimated
07:15AM 40.3904 -2.7359 280° West  Level Estimated
07:16AM 40.4063 -2.8607 279° West  Level Estimated
07:17AM 40.4220 -2.9856 279° West  Level Estimated
07:18AM 40.4377 -3.1105 279° West  Level Estimated
07:19AM 40.4532 -3.2355 279° West  Level Estimated
07:20AM 40.4685 -3.3606 279° West  Level Estimated
07:21AM 40.4838 -3.4857 279° West  Level Estimated
07:22AM 40.4989 -3.6109 99° East  Level Estimated
07:23AM 40.4838 -3.4857 279° West  Level Estimated
07:24AM 40.4989 -3.6109 99° East  Level Estimated
07:25AM 40.4838 -3.4857 279° West  Level Estimated
07:26AM 40.4989 -3.6109 99° East  Level Estimated
07:27AM 40.4838 -3.4857 279° West  Level Estimated
07:28AM 40.4989 -3.6109 99° East  Level Estimated
07:29AM 40.4838 -3.4857 279° West  Level Estimated
07:30AM 40.4989 -3.6109 99° East  Level Estimated
07:31AM 40.4838 -3.4857 99° East  Level Estimated